WXForecasting.com
Aberdeen, SD - Weather Station Data
 
Daily Summary for September 27, 2016 Units:  English    Metric   Both
« Previous Day
Next Day »
Daily Weekly Monthly Yearly Custom
  Current: High: Low: Average:
Temperature: 48.4 °F 51.0 °F 43.9 °F 47.4 °F
Dew Point: 40.0 °F 40.0 °F 37.0 °F 38.3 °F
Humidity: 72 % 78 % 62 % 71 %
Wind Speed: 3.0 mph 3.0 mph 0.0 mph 0.8 mph
Wind Gust: 4.0 mph 6.0 mph - -
Wind:SW - - SW
Pressure: 29.99 in 30.03 in 29.99 in -
Precipitation: 0.00 in      
Historical Graphs
 
 
Tabular Data for September 27, 2016
Time Temperature Dew Point Pressure Wind Wind Speed Wind Gust Humidity Rainfall Rate (Hourly) solar Conditions
00:09 50.3 °F 38.0 °F 30.03 in Calm   2.0 mph 62 % 0.00 in 0 W/m2
00:25 49.5 °F 38.0 °F 30.03 in NNW 1.0 mph 2.0 mph 64 % 0.00 in 0 W/m2
00:39 49.5 °F 38.0 °F 30.03 in Calm   3.0 mph 65 % 0.00 in 0 W/m2
00:54 49.3 °F 38.0 °F 30.02 in SW 1.0 mph 3.0 mph 66 % 0.00 in 0 W/m2
01:09 48.6 °F 38.0 °F 30.03 in SSW 1.0 mph 2.0 mph 68 % 0.00 in 0 W/m2
01:24 49.1 °F 38.0 °F 30.02 in Calm   2.0 mph 67 % 0.00 in 0 W/m2
01:39 49.5 °F 39.0 °F 30.02 in Calm   4.0 mph 67 % 0.00 in 0 W/m2
01:54 49.6 °F 39.0 °F 30.02 in NNW 1.0 mph 4.0 mph 67 % 0.00 in 0 W/m2
02:09 49.3 °F 39.0 °F 30.02 in SSE 2.0 mph 6.0 mph 67 % 0.00 in 0 W/m2
02:24 49.1 °F 39.0 °F 30.02 in SSW 2.0 mph 3.0 mph 68 % 0.00 in 0 W/m2
02:39 49.6 °F 39.0 °F 30.02 in East 1.0 mph 5.0 mph 67 % 0.00 in 0 W/m2
02:54 50.3 °F 39.0 °F 30.02 in North 1.0 mph 4.0 mph 65 % 0.00 in 0 W/m2
03:09 51.0 °F 39.0 °F 30.01 in NNW 1.0 mph 3.0 mph 63 % 0.00 in 0 W/m2
03:24 50.6 °F 39.0 °F 30.01 in Calm   3.0 mph 64 % 0.00 in 0 W/m2
03:39 49.7 °F 39.0 °F 30.01 in SW 1.0 mph 5.0 mph 66 % 0.00 in 0 W/m2
03:54 48.8 °F 39.0 °F 30.00 in WSW 2.0 mph 5.0 mph 68 % 0.00 in 0 W/m2
04:10 47.7 °F 38.0 °F 30.00 in SSW 1.0 mph 4.0 mph 70 % 0.00 in 0 W/m2
04:25 47.3 °F 38.0 °F 30.00 in Calm   1.0 mph 70 % 0.00 in 0 W/m2
04:39 46.8 °F 38.0 °F 30.00 in SW 1.0 mph 2.0 mph 71 % 0.00 in 0 W/m2
04:54 46.6 °F 38.0 °F 30.00 in SW 1.0 mph 2.0 mph 72 % 0.00 in 0 W/m2
05:10 46.0 °F 38.0 °F 30.00 in Calm   2.0 mph 73 % 0.00 in 0 W/m2
05:25 45.8 °F 38.0 °F 30.00 in Calm   2.0 mph 73 % 0.00 in 0 W/m2
05:40 45.5 °F 38.0 °F 30.00 in Calm   2.0 mph 74 % 0.00 in 0 W/m2
05:55 45.6 °F 38.0 °F 30.00 in Calm   5.0 mph 74 % 0.00 in 0 W/m2
06:10 45.4 °F 38.0 °F 30.00 in NW 1.0 mph 3.0 mph 74 % 0.00 in 0 W/m2
06:25 44.9 °F 37.0 °F 30.00 in Calm   1.0 mph 75 % 0.00 in 0 W/m2
06:41 44.3 °F 37.0 °F 29.99 in NW 1.0 mph 2.0 mph 76 % 0.00 in 0 W/m2
06:55 44.0 °F 37.0 °F 30.00 in Calm   3.0 mph 77 % 0.00 in 0 W/m2
07:10 43.9 °F 37.0 °F 30.00 in Calm   4.0 mph 78 % 0.00 in 0 W/m2
07:25 44.0 °F 38.0 °F 30.00 in South 3.0 mph 4.0 mph 78 % 0.00 in 0 W/m2
07:40 44.2 °F 38.0 °F 30.00 in WSW 1.0 mph 4.0 mph 78 % 0.00 in 9 W/m2
07:55 44.5 °F 38.0 °F 30.00 in East 1.0 mph 3.0 mph 78 % 0.00 in 14 W/m2
08:10 45.1 °F 38.0 °F 30.00 in South 1.0 mph 4.0 mph 77 % 0.00 in 21 W/m2
08:25 46.5 °F 39.0 °F 29.99 in North 1.0 mph 5.0 mph 75 % 0.00 in 25 W/m2
08:40 48.4 °F 40.0 °F 29.99 in SW 3.0 mph 4.0 mph 72 % 0.00 in 134 W/m2
Compliments of Weather Underground - 1.25 mb

12 Visitors online right now
Max visitors today: 22 at 12:27 am EDT
This month: 87 at 09-07-2016 04:15 pm EDT
This year: 87 at 09-07-2016 04:15 pm EDT
All time: 104 at 01-04-2012 03:34 am EST
See Who is Online